Startpagina
METAR-TAF:

METAR-TAF

Vliegvelden :

Hwange National Park, Zimbabwe

breedte: 18-38S, lengte: 027-00E, hoogte: 1079 m

Actueel weer

Dit bericht is 21 uur en het 25 minuten geleden gemaakt, om 12:00 UTC
Wind 6 kt uit het noordwesten
Temperatuur 37°C
Vochtigheid 25%
Druk 1009 hPa
Zicht 10 km of meer
geen wolken onder 1500 m en geen cumulonimbus

METAR: FVWN 161200Z 32006KT CAVOK 37/14 Q1009

Tijdstip: 11:25 (09:25 UTC)


TAF: ontbreekt

Waarnemingen en weersverwachtingen van meer dan 4000 vliegvelden (METAR en TAF).

De beschikbare stations zijn de gele en rode punten op de kaart.

Ga met uw muis naar het station om de naam te zien.

Klik dan om waarnemingen en weersverwachtingen te zien.

kaart wijzigen: klik op de groene knoppen met een zwart kruis om in te zoomen, op de groene knop met een streepje om uit te zoomen of op de groene pijlen voor aangrenzende kaarten.


METAR-TAF: